Pagrindinis puslapis
METAR-TAF:

METAR-TAF

Oro uostai :

Cruzeiro do Sul, Akrė, Brazilija

platuma: 07-38S, ilguma: 072-40W, Aukštis: 170 m

Dabartinis oras

Ataskaita buvo paskelbta 1 valandą ir 44 minutes, ne 23:00 UTC
Ramus vėjas
Temperatūra 28°C
Drėgmė 89%
Slėgis 1007 hPa
Matomumas 10 km arba daugiau
Mažai debesys ne aukštis 3000 ft

METAR: SBCZ 282300Z 00000KT 9999 FEW030 28/26 Q1007

Laikas: 19:44 (00:44 UTC)


TAF: trūkstamas

Orai ataskaitas ir orų prognozės (METAR, TAF).

turimą stotys yra geltonos ir raudonos taškus žemėlapyje.

Perkelti pele per norėdami pamatyti stoties vardą.

Tada spustelėkite, norėdami matyti oro stebėjimo ir prognozės.

Norėdami pakeisti žemėlapį: spustelėkite ant žalios mygtukų su juodo kryžiaus žemyn,; žalią mygtuką su brūkšneliu, jei norite nutolinti; arba žalių rodyklių gretimoms žemėlapius.


METAR-TAF: